createdAt,value
2019-01-25T00:01:29.023Z,1.38
2019-01-25T00:09:11.484Z,1.24
2019-01-25T00:12:56.126Z,1.37
2019-01-25T00:16:40.779Z,1.23
2019-01-25T00:20:25.448Z,1.32
2019-01-25T00:24:10.359Z,1.22
2019-01-25T00:27:35.998Z,1.26
2019-01-25T00:31:20.637Z,1.21
2019-01-25T00:34:57.770Z,1.27
2019-01-25T00:42:32.671Z,1.25
2019-01-25T00:45:58.231Z,1.45
2019-01-25T00:49:43.137Z,1.36
2019-01-25T00:53:27.789Z,1.24
2019-01-25T00:57:12.443Z,1.40
2019-01-25T01:00:57.074Z,1.26
2019-01-25T01:04:41.700Z,1.33
2019-01-25T01:08:26.572Z,1.30
2019-01-25T01:12:11.181Z,1.23
2019-01-25T01:15:55.818Z,1.37
2019-01-25T01:20:01.600Z,1.21
2019-01-25T01:23:46.250Z,1.23
2019-01-25T01:27:31.203Z,1.52
2019-01-25T01:31:15.882Z,1.51
2019-01-25T01:34:53.301Z,1.33
2019-01-25T01:38:37.920Z,1.30
2019-01-25T01:42:22.601Z,1.47
2019-01-25T01:46:07.235Z,1.36
2019-01-25T01:49:51.916Z,1.29
2019-01-25T01:57:40.090Z,1.19
2019-01-25T02:01:24.726Z,1.39
2019-01-25T02:05:09.616Z,1.38
2019-01-25T02:08:54.266Z,1.30
2019-01-25T02:12:38.890Z,1.36
2019-01-25T02:16:23.571Z,1.36
2019-01-25T02:20:10.257Z,1.39
2019-01-25T02:23:54.898Z,1.34
2019-01-25T02:27:39.518Z,1.48
2019-01-25T02:31:24.198Z,1.46
2019-01-25T02:35:09.112Z,1.54
2019-01-25T02:38:46.120Z,1.36
2019-01-25T02:42:30.763Z,1.55
2019-01-25T02:46:15.391Z,1.48
2019-01-25T02:50:00.064Z,1.65
2019-01-25T02:53:44.879Z,1.65
2019-01-25T02:57:29.511Z,1.67
2019-01-25T03:01:14.158Z,1.63
2019-01-25T03:04:58.839Z,1.65
2019-01-25T03:08:43.784Z,1.45
2019-01-25T03:12:28.438Z,1.35
2019-01-25T03:16:13.451Z,1.42
2019-01-25T03:19:58.115Z,1.41
2019-01-25T03:27:46.196Z,1.42
2019-01-25T03:31:30.856Z,1.36
2019-01-25T03:35:08.320Z,1.40
2019-01-25T03:38:53.310Z,1.53
2019-01-25T03:42:37.984Z,1.57
2019-01-25T03:46:22.613Z,1.46
2019-01-25T03:50:08.364Z,1.45
2019-01-25T03:53:52.996Z,1.54
2019-01-25T03:57:37.620Z,1.51
2019-01-25T04:01:22.587Z,1.43
2019-01-25T04:05:08.806Z,1.54
2019-01-25T04:08:53.435Z,1.47
2019-01-25T04:12:38.088Z,1.40
2019-01-25T04:16:22.711Z,1.46
2019-01-25T04:20:09.629Z,1.47
2019-01-25T04:23:54.266Z,1.50
2019-01-25T04:27:38.969Z,1.43
2019-01-25T04:31:23.580Z,1.40
2019-01-25T04:35:08.303Z,1.50
2019-01-25T04:38:53.679Z,1.35
2019-01-25T04:42:38.333Z,1.33
2019-01-25T04:46:23.008Z,1.43
2019-01-25T04:54:00.479Z,1.37
2019-01-25T04:57:45.128Z,1.39
2019-01-25T05:01:29.776Z,1.44
2019-01-25T05:05:14.422Z,1.47
2019-01-25T05:08:59.057Z,1.52
2019-01-25T05:12:44.526Z,1.44
2019-01-25T05:16:29.160Z,1.53
2019-01-25T05:20:13.813Z,1.48
2019-01-25T05:23:58.415Z,1.57
2019-01-25T05:27:43.036Z,1.52
2019-01-25T05:31:29.347Z,1.70
2019-01-25T05:35:06.783Z,1.58
2019-01-25T05:38:51.409Z,1.53
2019-01-25T05:42:36.046Z,1.57
2019-01-25T05:46:20.647Z,1.66
2019-01-25T05:50:06.474Z,1.58
2019-01-25T05:54:10.215Z,1.66
2019-01-25T05:58:00.966Z,1.63
2019-01-25T06:01:46.984Z,1.57
2019-01-25T06:09:35.167Z,1.58
2019-01-25T06:21:00.393Z,1.55
2019-01-25T06:25:24.663Z,1.65
2019-01-25T06:29:09.474Z,1.51
2019-01-25T06:32:54.167Z,1.54
2019-01-25T06:36:31.142Z,1.47
2019-01-25T06:40:15.849Z,1.53
2019-01-25T06:44:00.494Z,1.63
2019-01-25T06:47:45.120Z,1.47
2019-01-25T06:51:29.738Z,1.59
2019-01-25T06:55:14.381Z,1.60
2019-01-25T07:03:04.742Z,1.72
2019-01-25T07:06:49.366Z,1.74
2019-01-25T07:10:33.999Z,1.64
2019-01-25T07:14:18.636Z,1.74
2019-01-25T07:18:03.300Z,1.67
2019-01-25T07:21:47.964Z,1.58
2019-01-25T07:25:31.987Z,1.59
2019-01-25T07:29:16.635Z,1.78
2019-01-25T07:33:01.299Z,1.71
2019-01-25T07:36:39.370Z,1.78
2019-01-25T07:44:14.018Z,1.65
2019-01-25T07:47:58.973Z,1.58
2019-01-25T07:51:43.645Z,1.84
2019-01-25T07:55:28.302Z,1.81
2019-01-25T07:59:13.269Z,1.93
2019-01-25T08:06:48.652Z,2.13
2019-01-25T08:10:53.858Z,2.23
2019-01-25T08:14:57.488Z,1.93
2019-01-25T08:18:34.765Z,2.12
2019-01-25T08:22:19.526Z,2.07
2019-01-25T08:26:04.228Z,2.29
2019-01-25T08:29:48.907Z,2.09
2019-01-25T08:33:33.587Z,2.33
2019-01-25T08:37:18.275Z,2.46
2019-01-25T08:44:53.909Z,2.15
2019-01-25T08:48:38.910Z,2.60
2019-01-25T08:52:04.552Z,2.50
2019-01-25T08:55:49.213Z,2.69
2019-01-25T08:59:33.903Z,2.54
2019-01-25T09:03:18.921Z,2.58
2019-01-25T09:07:03.569Z,2.60
2019-01-25T09:10:48.187Z,2.71
2019-01-25T09:14:32.847Z,2.94
2019-01-25T09:18:10.635Z,2.84
2019-01-25T09:21:55.519Z,2.82
2019-01-25T09:25:40.146Z,2.68
2019-01-25T09:29:24.765Z,2.55
2019-01-25T09:33:11.926Z,2.47
2019-01-25T09:36:56.546Z,2.72
2019-01-25T09:40:41.497Z,2.72
2019-01-25T09:44:26.133Z,2.69
2019-01-25T09:48:31.101Z,2.88
2019-01-25T09:56:06.028Z,3.10
2019-01-25T10:03:41.233Z,2.86
2019-01-25T10:11:15.403Z,3.20
2019-01-25T10:18:42.658Z,2.97
2019-01-25T10:30:10.374Z,2.65
2019-01-25T10:33:54.986Z,2.79
2019-01-25T10:37:39.658Z,3.02
2019-01-25T10:41:24.273Z,2.91
2019-01-25T10:45:13.871Z,3.25
2019-01-25T10:48:58.793Z,3.31
2019-01-25T10:52:43.500Z,3.45
2019-01-25T10:56:28.115Z,3.71
2019-01-25T11:00:15.136Z,3.59
2019-01-25T11:11:52.986Z,3.62
2019-01-25T11:15:37.622Z,3.33
2019-01-25T11:19:14.620Z,2.61
2019-01-25T11:26:49.130Z,2.92
2019-01-25T11:30:34.069Z,3.31
2019-01-25T11:34:18.720Z,3.67
2019-01-25T11:38:22.383Z,2.83
2019-01-25T11:42:07.027Z,3.14
2019-01-25T11:45:54.342Z,2.95
2019-01-25T11:53:28.260Z,3.35
2019-01-25T11:57:12.880Z,3.90
2019-01-25T12:00:57.544Z,3.71
2019-01-25T12:04:42.160Z,4.02
2019-01-25T12:08:27.328Z,4.04
2019-01-25T12:12:11.966Z,4.32
2019-01-25T12:19:53.274Z,4.11
2019-01-25T12:27:27.883Z,4.47
2019-01-25T12:31:12.512Z,3.64
2019-01-25T12:34:57.164Z,3.78
2019-01-25T12:43:04.181Z,4.56
2019-01-25T12:46:48.816Z,4.35
2019-01-25T12:50:42.568Z,4.48
2019-01-25T12:58:17.044Z,4.55
2019-01-25T13:02:20.516Z,4.67
2019-01-25T13:06:05.882Z,4.69
2019-01-25T13:13:41.218Z,4.60
2019-01-25T13:17:26.226Z,4.24
2019-01-25T13:21:03.285Z,4.47
2019-01-25T13:24:48.220Z,4.46
2019-01-25T13:28:33.166Z,4.21
2019-01-25T13:32:17.944Z,3.83
2019-01-25T13:36:21.420Z,4.03
2019-01-25T13:44:12.213Z,4.69
2019-01-25T13:47:56.867Z,5.21
2019-01-25T13:51:41.534Z,5.12
2019-01-25T13:55:26.696Z,5.27
2019-01-25T13:59:11.368Z,5.49
2019-01-25T14:02:56.021Z,5.39
2019-01-25T14:06:41.394Z,5.39
2019-01-25T14:10:28.327Z,5.13
2019-01-25T14:14:13.019Z,4.78
2019-01-25T14:17:57.680Z,4.95
2019-01-25T14:21:33.517Z,4.65
2019-01-25T14:25:18.195Z,5.13
2019-01-25T14:29:02.875Z,5.02
2019-01-25T14:32:47.613Z,4.93
2019-01-25T14:36:32.536Z,5.29
2019-01-25T14:40:17.266Z,4.93
2019-01-25T14:44:01.905Z,4.83
2019-01-25T14:47:46.190Z,4.92
2019-01-25T14:51:30.901Z,4.88
2019-01-25T14:55:15.592Z,4.92
2019-01-25T14:59:00.229Z,4.69
2019-01-25T15:02:44.913Z,4.67
2019-01-25T15:06:29.998Z,4.95
2019-01-25T15:10:08.843Z,4.69
2019-01-25T15:13:53.500Z,4.73
2019-01-25T15:17:38.159Z,4.64
2019-01-25T15:21:22.849Z,4.70
2019-01-25T15:25:26.424Z,4.81
2019-01-25T15:29:13.849Z,5.04
2019-01-25T15:37:24.271Z,4.77
2019-01-25T15:41:08.962Z,4.52
2019-01-25T15:44:36.278Z,4.04
2019-01-25T15:48:21.317Z,3.94
2019-01-25T15:52:06.172Z,4.16
2019-01-25T15:55:50.927Z,4.09
2019-01-25T15:59:35.711Z,4.18
2019-01-25T16:03:20.403Z,3.68
2019-01-25T16:07:05.738Z,4.12
2019-01-25T16:10:44.643Z,4.09
2019-01-25T16:14:29.444Z,4.15
2019-01-25T16:18:14.753Z,3.97
2019-01-25T16:21:59.479Z,4.21
2019-01-25T16:25:44.221Z,3.83
2019-01-25T16:29:28.268Z,3.81
2019-01-25T16:33:13.089Z,4.02
2019-01-25T16:36:57.700Z,4.05
2019-01-25T16:40:42.355Z,3.81
2019-01-25T16:44:27.081Z,3.68
2019-01-25T16:48:11.939Z,3.79
2019-01-25T16:51:56.906Z,3.57
2019-01-25T16:55:41.614Z,3.53
2019-01-25T16:59:45.963Z,3.77
2019-01-25T17:03:31.330Z,3.77
2019-01-25T17:07:16.086Z,3.86
2019-01-25T17:10:54.200Z,3.68
2019-01-25T17:14:39.077Z,4.00
2019-01-25T17:18:23.736Z,3.75
2019-01-25T17:22:08.453Z,3.98
2019-01-25T17:25:53.568Z,3.97
2019-01-25T17:29:38.266Z,3.88
2019-01-25T17:33:22.920Z,3.82
2019-01-25T17:37:07.625Z,4.05
2019-01-25T17:45:25.153Z,4.21
2019-01-25T17:49:10.094Z,3.83
2019-01-25T17:52:54.749Z,3.60
2019-01-25T17:56:39.435Z,3.74
2019-01-25T18:00:47.901Z,3.80
2019-01-25T18:04:32.579Z,3.80
2019-01-25T18:08:17.224Z,3.76
2019-01-25T18:11:54.302Z,3.76
2019-01-25T18:15:39.290Z,3.77
2019-01-25T18:19:24.262Z,3.89
2019-01-25T18:23:08.912Z,4.08
2019-01-25T18:26:34.670Z,3.86
2019-01-25T18:30:40.761Z,3.90
2019-01-25T18:34:25.537Z,3.81
2019-01-25T18:38:10.479Z,4.00
2019-01-25T18:41:55.171Z,3.91
2019-01-25T18:45:39.840Z,3.91
2019-01-25T18:49:24.925Z,4.38
2019-01-25T18:53:09.981Z,3.99
2019-01-25T18:56:55.365Z,4.07
2019-01-25T19:04:51.327Z,3.99
2019-01-25T19:08:16.977Z,4.08
2019-01-25T19:12:01.647Z,4.28
2019-01-25T19:15:46.348Z,4.41
2019-01-25T19:19:30.997Z,4.22
2019-01-25T19:23:15.736Z,4.13
2019-01-25T19:27:00.501Z,4.22
2019-01-25T19:30:46.108Z,4.33
2019-01-25T19:34:30.780Z,4.44
2019-01-25T19:38:17.925Z,4.25
2019-01-25T19:42:02.655Z,4.29
2019-01-25T19:45:47.574Z,4.33
2019-01-25T19:49:32.281Z,4.41
2019-01-25T19:53:35.957Z,4.27
2019-01-25T19:57:20.559Z,4.57
2019-01-25T20:01:05.322Z,4.50
2019-01-25T20:04:42.402Z,4.48
2019-01-25T20:08:27.054Z,4.51
2019-01-25T20:12:11.678Z,4.40
2019-01-25T20:15:56.288Z,4.72
2019-01-25T20:19:40.920Z,4.66
2019-01-25T20:27:29.190Z,4.50
2019-01-25T20:31:13.818Z,4.43
2019-01-25T20:34:58.480Z,4.33
2019-01-25T20:38:43.087Z,4.60
2019-01-25T20:42:28.064Z,4.76
2019-01-25T20:46:12.931Z,4.56
2019-01-25T20:49:57.548Z,4.69
2019-01-25T20:53:42.184Z,4.81
2019-01-25T21:01:30.399Z,4.73
2019-01-25T21:05:07.744Z,4.94
2019-01-25T21:08:52.384Z,5.17
2019-01-25T21:12:37.021Z,5.00
2019-01-25T21:16:21.675Z,4.82
2019-01-25T21:20:28.439Z,4.92
2019-01-25T21:28:16.614Z,4.87
2019-01-25T21:32:01.246Z,5.14
2019-01-25T21:35:45.881Z,4.96
2019-01-25T21:39:30.674Z,5.02
2019-01-25T21:43:14.765Z,5.04
2019-01-25T21:46:59.604Z,5.11
2019-01-25T21:50:37.681Z,5.24
2019-01-25T21:54:22.433Z,5.02
2019-01-25T21:58:25.905Z,5.08
2019-01-25T22:02:10.894Z,5.05
2019-01-25T22:05:48.379Z,5.30
2019-01-25T22:09:33.028Z,5.58
2019-01-25T22:13:36.642Z,5.63
2019-01-25T22:17:40.433Z,5.48
2019-01-25T22:21:25.291Z,5.46
2019-01-25T22:25:10.202Z,5.23
2019-01-25T22:28:55.210Z,5.38
2019-01-25T22:32:39.835Z,5.39
2019-01-25T22:36:24.511Z,5.11
2019-01-25T22:40:14.794Z,5.33
2019-01-25T22:43:59.399Z,5.38
2019-01-25T22:47:44.073Z,5.58
2019-01-25T22:51:20.983Z,5.39
2019-01-25T22:55:09.888Z,5.60
2019-01-25T22:58:54.511Z,5.52
2019-01-25T23:02:39.276Z,5.38
2019-01-25T23:06:36.084Z,5.87
2019-01-25T23:10:22.459Z,5.57
2019-01-25T23:14:07.474Z,5.66
2019-01-25T23:17:52.095Z,5.68
2019-01-25T23:21:36.721Z,5.61
2019-01-25T23:25:21.365Z,5.61
2019-01-25T23:29:06.203Z,5.52
2019-01-25T23:32:50.815Z,5.55
2019-01-25T23:36:35.459Z,6.03
2019-01-25T23:40:20.365Z,5.67
2019-01-25T23:44:05.014Z,5.91
2019-01-25T23:47:49.628Z,5.94
2019-01-25T23:51:26.715Z,6.15
2019-01-25T23:55:11.528Z,6.25
2019-01-25T23:58:56.159Z,5.99
